Time;durP1;ratioP1;P1;durP2;ratioP2;P2;SDS_P1;SDS_P2;PMS_P1;PMS_P2;Temp;Humidity;BMP_temperature;BMP_pressure;BME280_temperature;BME280_humidity;BME280_pressure;Samples;Min_cycle;Max_cycle;Signal;HPM_P1;HPM_P2
2022/07/27 00:01:08;;;;;;;4.60;4.10;;;25.00;95.40;;;;;;5081602;28;20440;-74
2022/07/27 00:03:34;;;;;;;7.53;4.18;;;25.00;96.30;;;;;;5062814;28;20023;-74
2022/07/27 00:06:00;;;;;;;8.57;3.90;;;25.00;97.00;;;;;;5085228;28;20382;-74
2022/07/27 00:08:25;;;;;;;5.90;3.70;;;25.00;96.70;;;;;;5083593;28;20020;-75
2022/07/27 00:10:51;;;;;;;6.80;4.22;;;25.00;96.40;;;;;;5080113;28;20059;-75
2022/07/27 00:13:18;;;;;;;4.68;3.92;;;25.00;96.50;;;;;;5082661;28;20111;-74
2022/07/27 00:15:43;;;;;;;4.00;3.63;;;25.00;96.30;;;;;;5084173;28;20035;-75
2022/07/27 00:18:10;;;;;;;7.70;3.80;;;25.10;95.70;;;;;;5082051;28;20020;-74
2022/07/27 00:20:35;;;;;;;4.38;3.90;;;25.10;95.80;;;;;;5080110;28;20434;-76
2022/07/27 00:23:01;;;;;;;15.23;4.03;;;25.20;95.90;;;;;;5080628;28;20020;-75
2022/07/27 00:25:27;;;;;;;6.72;4.18;;;25.10;95.90;;;;;;5080918;28;20032;-76
2022/07/27 00:27:55;;;;;;;4.97;3.75;;;25.20;95.40;;;;;;5080773;28;20032;-76
2022/07/27 00:30:21;;;;;;;9.13;3.50;;;25.20;95.70;;;;;;5080915;28;20024;-77
2022/07/27 00:32:47;;;;;;;3.90;3.40;;;25.20;95.10;;;;;;5085211;28;20031;-75
2022/07/27 00:35:12;;;;;;;6.05;4.03;;;25.10;95.00;;;;;;5083133;28;20527;-77
2022/07/27 00:37:39;;;;;;;4.55;3.50;;;25.10;95.30;;;;;;5078720;28;20028;-77
2022/07/27 00:40:08;;;;;;;3.67;3.38;;;25.20;94.90;;;;;;5083314;28;20475;-76
2022/07/27 00:42:34;;;;;;;3.85;3.50;;;25.20;95.00;;;;;;5087375;28;20085;-76
2022/07/27 00:45:01;;;;;;;5.18;3.60;;;25.20;94.90;;;;;;5081151;28;20020;-77
2022/07/27 00:47:26;;;;;;;5.00;3.67;;;25.20;94.10;;;;;;5081439;28;20032;-77
2022/07/27 00:49:52;;;;;;;4.18;3.58;;;25.20;95.10;;;;;;5083598;28;20119;-76
2022/07/27 00:52:19;;;;;;;3.83;3.53;;;25.10;95.20;;;;;;5083781;28;20077;-76
2022/07/27 00:54:46;;;;;;;4.72;3.50;;;25.20;94.00;;;;;;5079620;28;20031;-76
2022/07/27 00:57:13;;;;;;;3.58;3.22;;;25.20;93.90;;;;;;5083160;28;20028;-76
2022/07/27 00:59:40;;;;;;;5.00;3.90;;;25.20;94.10;;;;;;5083092;28;20024;-76
2022/07/27 01:02:06;;;;;;;4.72;3.60;;;25.20;94.60;;;;;;5079706;28;20440;-77
2022/07/27 01:04:32;;;;;;;3.85;3.55;;;25.20;94.40;;;;;;5081037;28;20077;-77
2022/07/27 01:07:00;;;;;;;5.50;3.42;;;25.10;94.50;;;;;;5085082;28;20162;-74
2022/07/27 01:12:13;;;;;;;4.28;3.20;;;25.10;95.20;;;;;;5083019;28;20039;-74
2022/07/27 01:14:42;;;;;;;7.68;3.60;;;25.10;94.20;;;;;;5080967;28;20055;-74
2022/07/27 01:17:08;;;;;;;3.85;3.55;;;25.10;95.10;;;;;;5082119;28;20028;-75
2022/07/27 01:19:35;;;;;;;5.97;3.97;;;25.10;95.10;;;;;;5081614;28;20144;-75
2022/07/27 01:22:07;;;;;;;4.13;3.25;;;25.00;94.90;;;;;;5078925;28;20032;-74
2022/07/27 01:24:33;;;;;;;4.25;3.20;;;25.00;94.70;;;;;;5079974;28;20093;-74
2022/07/27 01:27:03;;;;;;;5.20;4.05;;;25.00;94.90;;;;;;5076387;28;20040;-74
2022/07/27 01:29:30;;;;;;;3.67;3.38;;;25.00;94.80;;;;;;5082725;28;20035;-75
2022/07/27 01:31:56;;;;;;;4.18;3.78;;;25.00;94.80;;;;;;5080817;28;20036;-76
2022/07/27 01:34:22;;;;;;;4.78;3.85;;;25.00;95.10;;;;;;5080705;28;20081;-75
2022/07/27 01:36:48;;;;;;;4.22;3.78;;;25.00;94.90;;;;;;5085789;28;20468;-74
2022/07/27 01:39:15;;;;;;;4.57;3.67;;;25.00;94.50;;;;;;5078227;28;20105;-76
2022/07/27 01:41:41;;;;;;;4.53;3.58;;;25.00;95.20;;;;;;5084663;28;20058;-75
2022/07/27 01:44:07;;;;;;;3.97;3.50;;;25.00;95.00;;;;;;5079255;28;20048;-74
2022/07/27 01:46:32;;;;;;;5.20;3.92;;;25.00;95.20;;;;;;5079464;28;20028;-75
2022/07/27 01:48:58;;;;;;;4.72;3.75;;;25.00;96.00;;;;;;5079566;28;20121;-74
2022/07/27 01:51:24;;;;;;;4.10;3.42;;;25.00;95.30;;;;;;5079337;28;20039;-75
2022/07/27 01:53:49;;;;;;;4.68;3.88;;;25.00;95.40;;;;;;5079200;28;20482;-74
2022/07/27 01:56:15;;;;;;;5.22;3.80;;;25.00;95.50;;;;;;5079034;28;20043;-75
2022/07/27 01:58:42;;;;;;;6.95;4.35;;;25.00;95.50;;;;;;5079242;28;20028;-75
2022/07/27 02:01:09;;;;;;;4.13;3.70;;;25.00;95.30;;;;;;5078396;28;20107;-75
2022/07/27 02:03:35;;;;;;;4.00;3.70;;;25.00;95.70;;;;;;5081196;28;20483;-76
2022/07/27 02:06:02;;;;;;;5.35;4.20;;;25.00;95.60;;;;;;5084489;28;20056;-75
2022/07/27 02:08:28;;;;;;;5.15;3.40;;;24.90;95.50;;;;;;5063735;28;20028;-75
2022/07/27 02:13:41;;;;;;;5.00;3.97;;;24.90;95.70;;;;;;5066294;28;20107;-75
2022/07/27 02:16:10;;;;;;;6.03;4.00;;;25.00;96.00;;;;;;5077872;28;20059;-74
2022/07/27 02:18:36;;;;;;;4.32;3.92;;;25.00;95.90;;;;;;5080752;28;20604;-75
2022/07/27 02:21:05;;;;;;;5.60;4.28;;;24.90;96.00;;;;;;5080732;28;20055;-76
2022/07/27 02:23:31;;;;;;;4.68;4.20;;;24.90;95.80;;;;;;5081101;28;20474;-75
2022/07/27 02:25:57;;;;;;;4.20;3.78;;;24.90;95.90;;;;;;5080780;28;20032;-74
2022/07/27 02:28:22;;;;;;;4.57;4.15;;;24.80;95.90;;;;;;5079618;28;20025;-74
2022/07/27 02:31:07;;;;;;;4.80;4.22;;;24.80;95.60;;;;;;5083271;28;20387;-75
2022/07/27 02:33:33;;;;;;;5.35;4.38;;;24.80;96.80;;;;;;5077762;28;20111;-74
2022/07/27 02:35:58;;;;;;;4.47;4.03;;;24.80;96.20;;;;;;5083143;28;20112;-74
2022/07/27 02:38:24;;;;;;;4.50;3.78;;;24.80;96.70;;;;;;5083959;28;20054;-73
2022/07/27 02:40:50;;;;;;;5.13;4.00;;;24.80;96.50;;;;;;5085973;28;20029;-73
2022/07/27 02:43:19;;;;;;;4.20;3.80;;;24.80;97.00;;;;;;5084881;28;20509;-73
2022/07/27 02:45:47;;;;;;;4.18;3.78;;;24.70;96.80;;;;;;5080480;28;20062;-74
2022/07/27 02:48:13;;;;;;;6.75;4.00;;;24.70;96.60;;;;;;5079279;28;20028;-75
2022/07/27 02:50:39;;;;;;;4.10;3.80;;;24.70;96.60;;;;;;5081504;28;20081;-75
2022/07/27 02:53:04;;;;;;;4.18;3.78;;;24.70;97.40;;;;;;5086148;28;20020;-75
2022/07/27 02:55:30;;;;;;;5.10;4.38;;;24.60;96.80;;;;;;5086840;28;20028;-75
2022/07/27 02:57:56;;;;;;;4.65;4.20;;;24.60;97.50;;;;;;5081488;28;20025;-75
2022/07/27 03:00:22;;;;;;;4.65;4.00;;;24.60;97.10;;;;;;5082881;28;20081;-75
2022/07/27 03:02:48;;;;;;;4.93;4.13;;;24.60;97.10;;;;;;5087768;28;20044;-74
2022/07/27 03:05:14;;;;;;;4.05;3.70;;;24.60;97.70;;;;;;5085057;28;20043;-74
2022/07/27 03:07:40;;;;;;;9.38;4.00;;;24.60;97.40;;;;;;5081625;28;20020;-74
2022/07/27 03:10:06;;;;;;;8.90;4.55;;;24.60;97.60;;;;;;5083635;28;20120;-73
2022/07/27 03:12:32;;;;;;;5.15;3.97;;;24.60;97.40;;;;;;5080617;28;20028;-74
2022/07/27 03:14:57;;;;;;;4.60;3.83;;;24.60;97.60;;;;;;5085309;28;20035;-74
2022/07/27 03:17:23;;;;;;;4.32;3.92;;;24.60;97.50;;;;;;5080357;28;20507;-74
2022/07/27 03:19:49;;;;;;;4.70;3.88;;;24.60;97.00;;;;;;5085063;28;20045;-74
2022/07/27 03:22:15;;;;;;;4.80;4.18;;;24.60;97.60;;;;;;5079229;28;20032;-74
2022/07/27 03:24:41;;;;;;;5.55;3.88;;;24.60;97.20;;;;;;5079588;28;20032;-74
2022/07/27 03:27:06;;;;;;;5.32;3.92;;;24.50;97.40;;;;;;5080359;28;20383;-74
2022/07/27 03:29:32;;;;;;;5.20;3.55;;;24.60;96.70;;;;;;5084867;28;20055;-72
2022/07/27 03:31:58;;;;;;;4.97;3.83;;;24.50;97.30;;;;;;5082273;28;20044;-73
2022/07/27 03:34:24;;;;;;;6.53;4.07;;;24.60;97.10;;;;;;5081641;28;20486;-74
2022/07/27 03:36:49;;;;;;;4.70;3.90;;;24.60;97.50;;;;;;5088725;28;20043;-74
2022/07/27 03:39:15;;;;;;;5.32;4.00;;;24.60;97.10;;;;;;5082888;28;20116;-74
2022/07/27 03:41:41;;;;;;;4.10;3.78;;;24.60;97.40;;;;;;5080363;28;20028;-74
2022/07/27 03:44:07;;;;;;;4.50;3.67;;;24.60;96.80;;;;;;5081638;28;20021;-74
2022/07/27 03:46:32;;;;;;;5.07;3.97;;;24.60;96.90;;;;;;5081795;28;20067;-74
2022/07/27 03:48:58;;;;;;;5.70;3.90;;;24.70;96.50;;;;;;5081078;28;20020;-75
2022/07/27 03:51:24;;;;;;;5.93;3.50;;;24.70;96.00;;;;;;5080041;28;20487;-74
2022/07/27 03:53:50;;;;;;;4.68;3.70;;;24.70;95.80;;;;;;5082404;28;20024;-74
2022/07/27 03:56:15;;;;;;;7.35;3.78;;;24.80;96.20;;;;;;5081375;28;20037;-74
2022/07/27 03:58:41;;;;;;;4.18;3.78;;;24.80;95.80;;;;;;5082347;28;20038;-74
2022/07/27 04:01:07;;;;;;;4.75;3.60;;;24.90;95.20;;;;;;5080498;28;20039;-74
2022/07/27 04:03:36;;;;;;;4.57;3.85;;;24.90;95.40;;;;;;5087183;28;20033;-74
2022/07/27 04:06:02;;;;;;;4.05;3.65;;;25.00;95.60;;;;;;5085480;28;20024;-74
2022/07/27 04:08:29;;;;;;;5.32;3.65;;;25.00;95.30;;;;;;5083507;28;20035;-74
2022/07/27 04:10:55;;;;;;;6.43;3.97;;;25.10;95.40;;;;;;5079957;28;20111;-74
2022/07/27 04:13:21;;;;;;;6.22;3.95;;;25.10;95.40;;;;;;5081668;28;20107;-74
2022/07/27 04:15:48;;;;;;;5.70;4.10;;;25.20;95.80;;;;;;5079220;28;20466;-74
2022/07/27 04:18:13;;;;;;;6.80;3.63;;;25.20;94.80;;;;;;5081182;28;20152;-74
2022/07/27 04:20:39;;;;;;;4.43;3.20;;;25.20;95.20;;;;;;5079868;28;20532;-74
2022/07/27 04:23:05;;;;;;;5.63;3.30;;;25.30;94.60;;;;;;5078327;28;20020;-74
2022/07/27 04:25:31;;;;;;;4.15;3.40;;;25.30;94.40;;;;;;5079099;28;20032;-74
2022/07/27 04:27:56;;;;;;;4.05;3.65;;;25.40;94.20;;;;;;5078499;28;20020;-73
2022/07/27 04:30:22;;;;;;;4.85;3.35;;;25.40;94.10;;;;;;5078316;28;20502;-72
2022/07/27 04:32:48;;;;;;;4.95;3.40;;;25.50;94.10;;;;;;5086823;28;20035;-74
2022/07/27 04:35:14;;;;;;;3.70;3.17;;;25.60;94.50;;;;;;5082077;28;20028;-74
2022/07/27 04:37:39;;;;;;;4.25;3.85;;;25.60;94.10;;;;;;5080723;28;20024;-74
2022/07/27 04:40:07;;;;;;;3.85;3.15;;;25.70;94.30;;;;;;5083244;28;20494;-74
2022/07/27 04:42:32;;;;;;;6.40;3.90;;;25.70;94.30;;;;;;5078837;28;20433;-74
2022/07/27 04:44:58;;;;;;;4.15;3.72;;;25.80;94.60;;;;;;5085590;28;20016;-74
2022/07/27 04:47:25;;;;;;;3.67;3.22;;;25.80;94.50;;;;;;5081859;28;20056;-74
2022/07/27 04:49:50;;;;;;;4.05;3.65;;;25.80;94.20;;;;;;5085388;28;20026;-75
2022/07/27 04:52:16;;;;;;;3.97;3.55;;;25.80;94.40;;;;;;5082601;28;20426;-74
2022/07/27 04:54:43;;;;;;;4.65;3.17;;;25.80;94.30;;;;;;5083458;28;20107;-74
2022/07/27 04:57:09;;;;;;;5.15;3.60;;;25.80;94.20;;;;;;5078402;28;20035;-74
2022/07/27 04:59:34;;;;;;;4.85;3.58;;;25.80;94.30;;;;;;5081451;28;20020;-75
2022/07/27 05:02:00;;;;;;;3.70;3.30;;;25.90;94.40;;;;;;5080728;28;20215;-74
2022/07/27 05:04:26;;;;;;;6.25;3.60;;;26.00;94.30;;;;;;5081270;28;20031;-75
2022/07/27 05:06:51;;;;;;;4.60;3.42;;;26.00;93.90;;;;;;5085930;28;20476;-74
2022/07/27 05:09:17;;;;;;;3.92;3.42;;;26.00;93.80;;;;;;5082754;28;20359;-74
2022/07/27 05:11:43;;;;;;;4.82;3.33;;;26.10;93.90;;;;;;5079838;28;20028;-74
2022/07/27 05:14:08;;;;;;;4.07;3.45;;;26.10;93.60;;;;;;5083304;28;20364;-74
2022/07/27 05:16:37;;;;;;;3.83;3.38;;;26.10;93.30;;;;;;5079830;28;20099;-74
2022/07/27 05:19:03;;;;;;;4.05;3.17;;;26.20;93.30;;;;;;5080322;28;20068;-74
2022/07/27 05:21:28;;;;;;;7.78;3.78;;;26.20;93.40;;;;;;5079825;28;20032;-73
2022/07/27 05:23:54;;;;;;;4.90;3.25;;;26.20;93.20;;;;;;5074150;28;20562;-74
2022/07/27 05:26:21;;;;;;;3.40;3.10;;;26.30;93.00;;;;;;5079501;28;20028;-74
2022/07/27 05:28:46;;;;;;;3.58;2.88;;;26.20;93.30;;;;;;5080101;28;20474;-74
2022/07/27 05:31:12;;;;;;;3.63;3.08;;;26.30;92.50;;;;;;5079344;28;20036;-74
2022/07/27 05:33:38;;;;;;;7.88;3.53;;;26.30;92.60;;;;;;5083261;28;20090;-74
2022/07/27 05:36:04;;;;;;;3.58;3.25;;;26.30;92.00;;;;;;5082651;28;20118;-74
2022/07/27 05:38:30;;;;;;;2.88;2.67;;;26.30;91.80;;;;;;5081695;28;20027;-74
2022/07/27 05:40:56;;;;;;;3.30;3.00;;;26.30;92.30;;;;;;5077887;28;20024;-74
2022/07/27 05:43:21;;;;;;;9.52;3.13;;;26.30;92.20;;;;;;5081391;28;20281;-74
2022/07/27 05:45:47;;;;;;;7.80;2.88;;;26.30;92.20;;;;;;5078803;28;20073;-74
2022/07/27 05:48:13;;;;;;;5.05;3.08;;;26.30;92.40;;;;;;5076029;28;20027;-74
2022/07/27 05:50:38;;;;;;;3.80;2.80;;;26.30;92.80;;;;;;5077676;28;20055;-73
2022/07/27 05:53:04;;;;;;;3.75;3.15;;;26.30;92.80;;;;;;5085780;28;20067;-73
2022/07/27 05:55:30;;;;;;;5.28;3.30;;;26.30;92.50;;;;;;5077322;28;20020;-74
2022/07/27 05:57:56;;;;;;;6.70;3.35;;;26.30;92.80;;;;;;5079578;28;20041;-74
2022/07/27 06:00:21;;;;;;;5.88;3.22;;;26.40;92.70;;;;;;5079499;28;20056;-74
2022/07/27 06:02:47;;;;;;;4.90;3.38;;;26.40;92.80;;;;;;5087904;28;20055;-73
2022/07/27 06:05:13;;;;;;;10.23;4.75;;;26.50;93.00;;;;;;5085474;28;20032;-73
2022/07/27 06:10:22;;;;;;;4.03;3.35;;;26.40;92.80;;;;;;5079348;28;20039;-74
2022/07/27 06:12:48;;;;;;;5.93;3.85;;;26.40;93.30;;;;;;5078589;28;20040;-74
2022/07/27 06:15:16;;;;;;;6.97;4.20;;;26.40;93.60;;;;;;5080405;28;20027;-74
2022/07/27 06:17:42;;;;;;;5.22;3.55;;;26.30;96.70;;;;;;5077879;28;20563;-74
2022/07/27 06:20:09;;;;;;;4.15;3.67;;;26.20;97.80;;;;;;5080092;28;20135;-75
2022/07/27 06:22:54;;;;;;;7.53;4.32;;;26.10;99.40;;;;;;5055706;28;20415;-74
2022/07/27 06:25:20;;;;;;;6.95;4.70;;;26.00;99.90;;;;;;5058329;28;20078;-74
2022/07/27 06:27:46;;;;;;;6.38;4.22;;;25.80;99.90;;;;;;5057966;28;20037;-74
2022/07/27 06:30:14;;;;;;;5.43;3.60;;;25.70;99.90;;;;;;5060471;28;20043;-74
2022/07/27 06:32:40;;;;;;;5.43;3.50;;;25.60;99.90;;;;;;5060862;28;20148;-74
2022/07/27 06:35:07;;;;;;;4.28;3.70;;;25.50;99.80;;;;;;5060329;28;20040;-75
2022/07/27 06:37:33;;;;;;;6.07;3.78;;;25.40;99.90;;;;;;5058799;28;20647;-73
2022/07/27 06:40:02;;;;;;;6.07;3.78;;;25.50;99.90;;;;;;5062629;28;20020;-74
2022/07/27 06:42:28;;;;;;;4.10;3.40;;;25.50;99.10;;;;;;5058970;28;20033;-75
2022/07/27 06:44:54;;;;;;;6.32;3.50;;;25.50;99.10;;;;;;5055800;28;20476;-74
2022/07/27 06:47:21;;;;;;;4.40;3.80;;;25.60;97.80;;;;;;5055388;28;20040;-76
2022/07/27 06:49:50;;;;;;;4.28;3.63;;;25.60;97.30;;;;;;5060319;28;20033;-74
2022/07/27 06:52:18;;;;;;;4.13;3.25;;;25.80;96.20;;;;;;5062686;28;20716;-75
2022/07/27 06:54:44;;;;;;;5.78;3.95;;;25.80;95.90;;;;;;5058754;28;20025;-76
2022/07/27 06:57:10;;;;;;;4.72;3.72;;;26.00;95.90;;;;;;5061663;28;20028;-75
2022/07/27 06:59:35;;;;;;;3.72;3.42;;;26.10;95.70;;;;;;5059813;28;20116;-75
2022/07/27 07:02:01;;;;;;;4.45;3.40;;;26.10;95.50;;;;;;5058369;28;20024;-74
2022/07/27 07:04:27;;;;;;;4.93;3.38;;;26.20;95.30;;;;;;5059685;28;20036;-74
2022/07/27 07:06:52;;;;;;;3.80;3.30;;;26.30;94.40;;;;;;5063777;28;20115;-74
2022/07/27 07:09:18;;;;;;;3.92;3.40;;;26.40;93.60;;;;;;5061350;28;20058;-74
2022/07/27 07:11:44;;;;;;;4.05;3.72;;;26.50;93.60;;;;;;5056780;28;20085;-76
2022/07/27 07:14:10;;;;;;;6.82;3.30;;;26.60;93.00;;;;;;5055519;28;20059;-72
2022/07/27 07:16:35;;;;;;;3.40;3.00;;;26.70;92.60;;;;;;5064728;28;20048;-72
2022/07/27 07:19:01;;;;;;;3.85;3.45;;;26.70;92.50;;;;;;5058383;28;20090;-72
2022/07/27 07:21:27;;;;;;;4.82;3.90;;;26.70;92.90;;;;;;5058491;28;20036;-73
2022/07/27 07:23:52;;;;;;;4.63;3.67;;;26.70;92.50;;;;;;5058901;28;20032;-73
2022/07/27 07:26:21;;;;;;;14.23;3.83;;;26.70;92.60;;;;;;5062008;28;20061;-70
2022/07/27 07:28:47;;;;;;;5.05;3.60;;;26.70;92.70;;;;;;5061138;28;20024;-72
2022/07/27 07:31:13;;;;;;;3.75;3.45;;;26.70;92.40;;;;;;5059828;28;20036;-72
2022/07/27 07:33:39;;;;;;;5.07;3.33;;;26.70;92.40;;;;;;5064757;28;20032;-72
2022/07/27 07:36:05;;;;;;;5.03;3.60;;;26.70;92.10;;;;;;5068877;28;20431;-71
2022/07/27 07:38:32;;;;;;;5.43;3.70;;;26.70;92.10;;;;;;5062008;28;20044;-70
2022/07/27 07:40:57;;;;;;;4.65;3.33;;;26.60;91.40;;;;;;5056845;28;20020;-71
2022/07/27 07:43:23;;;;;;;3.72;3.05;;;26.70;91.30;;;;;;5063420;28;20028;-71
2022/07/27 07:45:49;;;;;;;7.05;3.58;;;26.80;91.80;;;;;;5065787;28;20021;-71
2022/07/27 07:48:15;;;;;;;5.78;3.40;;;26.80;91.50;;;;;;5063303;28;20031;-72
2022/07/27 07:50:40;;;;;;;4.80;3.50;;;26.90;91.50;;;;;;5060452;28;20033;-71
2022/07/27 07:53:06;;;;;;;4.95;3.72;;;27.00;91.50;;;;;;5062593;28;20119;-71
2022/07/27 07:55:32;;;;;;;4.22;3.22;;;27.10;91.40;;;;;;5060950;28;20029;-71
2022/07/27 07:57:58;;;;;;;4.63;3.30;;;27.10;90.80;;;;;;5065223;28;20091;-71
2022/07/27 08:00:24;;;;;;;9.60;3.40;;;27.30;90.60;;;;;;5065522;28;20635;-71
2022/07/27 08:02:56;;;;;;;4.68;3.10;;;27.40;91.10;;;;;;5065183;28;20036;-71
2022/07/27 08:05:22;;;;;;;12.48;3.33;;;27.60;90.90;;;;;;5065012;28;20025;-71
2022/07/27 08:07:49;;;;;;;5.05;3.40;;;27.80;90.50;;;;;;5060551;28;20033;-70
2022/07/27 08:10:16;;;;;;;5.38;3.33;;;27.90;90.00;;;;;;5062375;28;20463;-71
2022/07/27 08:12:45;;;;;;;5.40;3.20;;;28.00;90.20;;;;;;5059852;28;20025;-70
2022/07/27 08:15:11;;;;;;;3.95;2.83;;;28.10;89.40;;;;;;5062919;28;20032;-71
2022/07/27 08:17:37;;;;;;;5.93;3.28;;;28.20;89.90;;;;;;5059378;28;20106;-71
2022/07/27 08:20:04;;;;;;;6.20;3.47;;;28.30;89.30;;;;;;5053142;28;20096;-71
2022/07/27 08:22:30;;;;;;;4.97;3.47;;;28.20;89.10;;;;;;5059167;28;20072;-71
2022/07/27 08:24:56;;;;;;;9.23;4.10;;;28.30;89.40;;;;;;5063963;28;20021;-72
2022/07/27 08:27:21;;;;;;;5.45;3.22;;;28.30;88.80;;;;;;5058907;28;20244;-71
2022/07/27 08:29:47;;;;;;;4.50;3.20;;;28.20;88.70;;;;;;5062389;28;20021;-71
2022/07/27 08:32:13;;;;;;;4.72;3.10;;;28.20;88.20;;;;;;5057071;28;20041;-71
2022/07/27 08:34:39;;;;;;;4.38;3.15;;;28.20;88.50;;;;;;5062872;28;20024;-71
2022/07/27 08:37:04;;;;;;;3.38;3.08;;;28.20;88.90;;;;;;5060036;28;20029;-72
2022/07/27 08:39:30;;;;;;;3.55;3.22;;;28.20;88.70;;;;;;5058259;28;20025;-71
2022/07/27 08:41:59;;;;;;;4.60;3.08;;;28.20;88.80;;;;;;5057393;28;20037;-71
2022/07/27 08:44:28;;;;;;;3.83;3.03;;;28.20;89.20;;;;;;5063193;28;20056;-72
2022/07/27 08:47:00;;;;;;;4.00;3.35;;;28.30;88.20;;;;;;5055739;28;20110;-72
2022/07/27 08:49:27;;;;;;;5.88;3.20;;;28.30;88.90;;;;;;5063143;28;20050;-71
2022/07/27 08:51:53;;;;;;;4.40;3.22;;;28.40;89.00;;;;;;5058590;28;20033;-74
2022/07/27 08:54:20;;;;;;;4.45;3.25;;;28.50;88.90;;;;;;5061750;28;20060;-71
2022/07/27 08:56:46;;;;;;;4.30;2.92;;;28.60;87.80;;;;;;5049416;28;20087;-71
2022/07/27 08:59:12;;;;;;;3.33;3.03;;;28.70;86.90;;;;;;5062029;28;20479;-72
2022/07/27 09:01:38;;;;;;;5.05;3.08;;;28.80;87.00;;;;;;5058088;28;20115;-71
2022/07/27 09:04:06;;;;;;;4.50;2.78;;;28.90;87.10;;;;;;5063463;28;20082;-70
2022/07/27 09:06:49;;;;;;;4.32;3.08;;;29.00;86.70;;;;;;5064504;28;20063;-70
2022/07/27 09:09:17;;;;;;;5.88;2.97;;;29.20;87.30;;;;;;5052146;28;20483;-72
2022/07/27 09:12:00;;;;;;;4.80;2.92;;;29.30;85.30;;;;;;5066111;28;20028;-72
2022/07/27 09:14:30;;;;;;;5.72;3.08;;;29.40;84.80;;;;;;5062771;28;20033;-71
2022/07/27 09:16:56;;;;;;;3.42;2.97;;;29.40;85.40;;;;;;5058010;28;20629;-70
2022/07/27 09:19:21;;;;;;;3.00;2.70;;;29.50;85.00;;;;;;5062843;28;20048;-70
2022/07/27 09:21:47;;;;;;;3.78;3.05;;;29.60;84.80;;;;;;5058048;28;20405;-70
2022/07/27 09:24:14;;;;;;;4.00;2.95;;;29.60;84.50;;;;;;5061625;28;20536;-71
2022/07/27 09:26:41;;;;;;;3.17;2.85;;;29.70;84.70;;;;;;5056556;28;20029;-71
2022/07/27 09:29:14;;;;;;;4.43;3.03;;;29.80;83.70;;;;;;5062861;28;20043;-71
2022/07/27 09:31:44;;;;;;;4.35;3.17;;;29.90;84.90;;;;;;5057559;28;20079;-71
2022/07/27 09:34:11;;;;;;;4.38;2.83;;;30.00;84.00;;;;;;5062271;28;20020;-72
2022/07/27 09:36:54;;;;;;;4.10;2.70;;;30.10;83.00;;;;;;5065503;28;20029;-71
2022/07/27 09:39:21;;;;;;;3.38;2.85;;;30.10;82.90;;;;;;5058075;28;20474;-73
2022/07/27 09:42:01;;;;;;;3.70;3.00;;;30.20;82.20;;;;;;5047891;28;20036;-71
2022/07/27 09:44:39;;;;;;;4.20;2.88;;;30.30;83.40;;;;;;5060582;28;20020;-71
2022/07/27 09:47:25;;;;;;;5.20;3.00;;;30.60;82.00;;;;;;5055805;28;20503;-71
2022/07/27 09:49:51;;;;;;;4.80;3.13;;;30.80;81.60;;;;;;5060968;28;20033;-70
2022/07/27 09:52:28;;;;;;;3.55;2.90;;;31.00;80.80;;;;;;5056470;28;20051;-71
2022/07/27 09:55:02;;;;;;;5.70;2.83;;;31.20;80.10;;;;;;5060987;28;20116;-71
2022/07/27 09:57:27;;;;;;;3.28;2.80;;;31.30;79.60;;;;;;5057342;28;20025;-71
2022/07/27 10:00:12;;;;;;;3.72;3.13;;;31.50;79.70;;;;;;5062251;28;20115;-70
2022/07/27 10:02:40;;;;;;;5.03;2.95;;;31.80;78.00;;;;;;5063629;28;20032;-70
2022/07/27 10:05:06;;;;;;;6.03;2.78;;;32.10;76.50;;;;;;5058958;28;20060;-70
2022/07/27 10:07:32;;;;;;;3.60;3.05;;;32.30;77.50;;;;;;5059152;28;20029;-71
2022/07/27 10:10:00;;;;;;;5.25;3.45;;;32.60;76.60;;;;;;5062069;28;20021;-70
2022/07/27 10:12:28;;;;;;;3.58;3.17;;;32.80;76.00;;;;;;5057348;28;20073;-71
2022/07/27 10:14:54;;;;;;;3.40;3.10;;;33.10;76.20;;;;;;5064182;28;20055;-71
2022/07/27 10:17:20;;;;;;;3.25;2.90;;;33.10;75.50;;;;;;5060742;28;20052;-69
2022/07/27 10:19:49;;;;;;;5.88;3.17;;;33.10;75.50;;;;;;5063075;28;20257;-70
2022/07/27 10:22:15;;;;;;;4.57;2.88;;;33.00;73.40;;;;;;5060039;28;20028;-71
2022/07/27 10:24:41;;;;;;;3.65;2.90;;;32.90;76.20;;;;;;5061825;28;20032;-70
2022/07/27 10:27:29;;;;;;;4.47;3.20;;;32.80;75.40;;;;;;5057060;28;20063;-70
2022/07/27 10:29:56;;;;;;;3.47;2.95;;;32.60;75.60;;;;;;5059010;28;20072;-70
2022/07/27 10:32:26;;;;;;;4.82;3.97;;;32.50;74.80;;;;;;5063757;28;20037;-71
2022/07/27 10:34:52;;;;;;;7.80;3.60;;;32.40;75.40;;;;;;5059636;28;20031;-70
2022/07/27 10:37:27;;;;;;;4.45;3.35;;;32.50;75.90;;;;;;5059306;28;20036;-72
2022/07/27 10:42:40;;;;;;;4.60;3.85;;;32.60;74.60;;;;;;5057199;28;20032;-70
2022/07/27 10:45:09;;;;;;;3.97;3.08;;;32.60;74.90;;;;;;5064125;28;20048;-71
2022/07/27 10:47:39;;;;;;;4.80;3.17;;;32.40;75.20;;;;;;5058218;28;20025;-70
2022/07/27 10:50:14;;;;;;;3.42;3.13;;;32.30;74.70;;;;;;5056307;28;20115;-72
2022/07/27 10:52:42;;;;;;;5.95;3.42;;;32.20;74.50;;;;;;5056448;28;20504;-71
2022/07/27 10:55:35;;;;;;;4.20;3.28;;;32.00;75.50;;;;;;5063621;28;20029;-70
2022/07/27 10:58:13;;;;;;;5.95;3.40;;;31.90;79.60;;;;;;5049055;28;20123;-71
2022/07/27 11:00:47;;;;;;;4.05;2.92;;;31.90;81.80;;;;;;5067823;28;20036;-72
2022/07/27 11:03:25;;;;;;;4.75;3.13;;;31.90;82.00;;;;;;5065889;28;20021;-71
2022/07/27 11:06:24;;;;;;;4.30;2.72;;;32.10;81.50;;;;;;5066622;28;20091;-70
2022/07/27 11:08:51;;;;;;;6.20;3.05;;;32.30;80.20;;;;;;5063917;28;20036;-72
2022/07/27 11:11:22;;;;;;;3.70;2.90;;;32.40;78.10;;;;;;5066114;28;20041;-71
2022/07/27 11:13:53;;;;;;;5.93;3.40;;;32.50;78.60;;;;;;5062336;28;20078;-70
2022/07/27 11:16:19;;;;;;;6.35;3.10;;;32.60;78.80;;;;;;5062626;28;20095;-72
2022/07/27 11:18:53;;;;;;;3.17;2.88;;;32.60;76.10;;;;;;5062739;28;20024;-72
2022/07/27 11:21:33;;;;;;;6.75;3.28;;;32.60;77.70;;;;;;5062419;28;20051;-70
2022/07/27 11:24:04;;;;;;;4.43;3.13;;;32.50;76.90;;;;;;5052074;28;20017;-70
2022/07/27 11:26:37;;;;;;;5.65;3.50;;;32.50;76.10;;;;;;5062064;28;20486;-70
2022/07/27 11:29:07;;;;;;;6.57;3.50;;;32.40;76.60;;;;;;5052915;28;20391;-72
2022/07/27 11:31:35;;;;;;;3.95;2.88;;;32.30;77.10;;;;;;5060557;28;20041;-71
2022/07/27 11:34:01;;;;;;;4.03;3.08;;;32.30;76.90;;;;;;5053718;28;20021;-71
2022/07/27 11:36:40;;;;;;;7.13;3.10;;;32.20;77.60;;;;;;5067506;28;20055;-71
2022/07/27 11:39:09;;;;;;;4.88;2.95;;;32.20;79.60;;;;;;5054967;28;20552;-71
2022/07/27 11:41:36;;;;;;;4.18;3.15;;;32.30;78.40;;;;;;5068033;28;20024;-71
2022/07/27 11:44:08;;;;;;;4.10;3.00;;;32.30;78.50;;;;;;5061949;28;20031;-69
2022/07/27 11:46:43;;;;;;;4.68;3.00;;;32.30;79.10;;;;;;5061513;28;20055;-71
2022/07/27 11:49:35;;;;;;;5.03;3.30;;;32.30;78.00;;;;;;5055482;28;20483;-71
2022/07/27 11:52:03;;;;;;;8.18;2.90;;;32.30;77.70;;;;;;5050627;28;20048;-71
2022/07/27 11:54:32;;;;;;;4.18;2.88;;;32.20;78.20;;;;;;5063810;28;20039;-71
2022/07/27 11:57:03;;;;;;;4.03;3.20;;;32.10;78.70;;;;;;5058440;28;20033;-71
2022/07/27 11:59:31;;;;;;;3.93;3.53;;;32.00;80.10;;;;;;5064505;28;20049;-71
2022/07/27 12:01:59;;;;;;;3.83;3.35;;;32.00;80.30;;;;;;5062810;28;20029;-71
2022/07/27 12:04:40;;;;;;;4.22;3.65;;;32.20;82.80;;;;;;5062246;28;20072;-71
2022/07/27 12:07:30;;;;;;;4.95;2.92;;;32.40;81.80;;;;;;5064815;28;20055;-71
2022/07/27 12:09:58;;;;;;;5.07;3.38;;;32.70;81.90;;;;;;5056161;28;20041;-71
2022/07/27 12:12:25;;;;;;;3.25;2.95;;;33.10;81.10;;;;;;5059311;28;20548;-70
2022/07/27 12:14:57;;;;;;;3.90;3.13;;;33.60;79.70;;;;;;5058626;28;20029;-71
2022/07/27 12:17:23;;;;;;;;;;;34.10;79.50;;;;;;5059900;28;20032;-71
2022/07/27 12:20:09;;;;;;;4.57;3.13;;;34.60;76.60;;;;;;5063740;28;19916;-71
2022/07/27 12:22:35;;;;;;;5.10;2.85;;;35.20;74.80;;;;;;5062804;28;20029;-70
2022/07/27 12:25:07;;;;;;;5.90;3.25;;;36.40;71.20;;;;;;5055605;28;20021;-71
2022/07/27 12:27:34;;;;;;;10.20;3.08;;;37.40;70.80;;;;;;5058831;28;20025;-71
2022/07/27 12:30:10;;;;;;;2.67;2.47;;;38.00;68.60;;;;;;5067875;28;20032;-72
2022/07/27 12:32:44;;;;;;;3.65;2.60;;;38.30;67.50;;;;;;5064562;28;20052;-72
2022/07/27 12:35:22;;;;;;;7.03;2.65;;;38.20;65.60;;;;;;5058308;28;20020;-72
2022/07/27 12:37:55;;;;;;;3.28;2.25;;;37.80;68.10;;;;;;5060604;28;20025;-70
2022/07/27 12:40:21;;;;;;;6.93;2.40;;;37.50;65.20;;;;;;5061282;28;20040;-72
2022/07/27 12:42:56;;;;;;;4.00;2.33;;;37.00;66.20;;;;;;5064566;28;20386;-70
2022/07/27 12:45:22;;;;;;;3.00;2.35;;;36.60;67.00;;;;;;5057097;28;20040;-69
2022/07/27 12:47:47;;;;;;;6.20;2.70;;;36.20;66.70;;;;;;5057652;28;20033;-72
2022/07/27 12:50:25;;;;;;;4.30;2.72;;;35.80;67.80;;;;;;5056955;28;20029;-70
2022/07/27 12:52:52;;;;;;;7.07;2.47;;;35.50;69.00;;;;;;5062045;28;20036;-71
2022/07/27 12:55:20;;;;;;;3.60;2.50;;;35.20;68.60;;;;;;5060968;28;20478;-72
2022/07/27 12:57:47;;;;;;;4.78;3.20;;;34.90;70.40;;;;;;5062850;28;20040;-70
2022/07/27 13:00:16;;;;;;;5.15;2.80;;;34.60;70.50;;;;;;5056095;28;20056;-70
2022/07/27 13:02:42;;;;;;;5.55;2.83;;;34.30;70.50;;;;;;5065270;28;20158;-71